createdAt,value
2017-04-27T00:01:01.281Z,90.15
2017-04-27T00:02:13.803Z,90.34
2017-04-27T00:03:26.322Z,90.34
2017-04-27T00:04:38.561Z,90.06
2017-04-27T00:05:51.060Z,90.25
2017-04-27T00:07:03.560Z,90.44
2017-04-27T00:08:16.102Z,90.34
2017-04-27T00:09:28.645Z,90.25
2017-04-27T00:10:41.150Z,90.34
2017-04-27T00:11:53.694Z,89.87
2017-04-27T00:13:06.215Z,90.06
2017-04-27T00:14:18.439Z,90.06
2017-04-27T00:15:30.981Z,90.34
2017-04-27T00:16:43.520Z,89.87
2017-04-27T00:17:56.040Z,90.34
2017-04-27T00:19:08.565Z,90.44
2017-04-27T00:20:21.418Z,90.44
2017-04-27T00:21:33.954Z,90.48
2017-04-27T00:22:46.478Z,89.87
2017-04-27T00:23:59.020Z,90.1
2017-04-27T00:25:11.229Z,90.1
2017-04-27T00:26:24.019Z,89.96
2017-04-27T00:27:36.532Z,90.06
2017-04-27T00:28:49.028Z,90.1
2017-04-27T00:30:01.529Z,90.1
2017-04-27T00:31:14.078Z,90.2
2017-04-27T00:32:26.649Z,89.72
2017-04-27T00:33:39.174Z,89.53
2017-04-27T00:34:51.696Z,90.01
2017-04-27T00:36:04.215Z,90.1
2017-04-27T00:37:16.737Z,89.82
2017-04-27T00:38:29.274Z,89.91
2017-04-27T00:39:41.774Z,89.91
2017-04-27T00:40:54.313Z,90.1
2017-04-27T00:42:06.863Z,90.39
2017-04-27T00:43:19.108Z,90.1
2017-04-27T00:44:31.617Z,89.91
2017-04-27T00:45:44.178Z,90.1
2017-04-27T00:46:56.704Z,89.82
2017-04-27T00:48:09.250Z,89.72
2017-04-27T00:49:21.771Z,90.01
2017-04-27T00:50:34.006Z,90.29
2017-04-27T00:51:46.558Z,90.58
2017-04-27T00:52:59.073Z,90.29
2017-04-27T00:54:11.567Z,90.29
2017-04-27T00:55:23.752Z,90.44
2017-04-27T00:56:35.967Z,90.29
2017-04-27T00:57:48.494Z,90.44
2017-04-27T00:59:01.026Z,90.34
2017-04-27T01:00:13.559Z,90.91
2017-04-27T01:01:26.118Z,91
2017-04-27T01:02:38.651Z,90.72
2017-04-27T01:03:51.192Z,90.81
2017-04-27T01:05:03.679Z,91
2017-04-27T01:06:15.626Z,91.19
2017-04-27T01:07:28.122Z,90.91
2017-04-27T01:08:40.643Z,91.1
2017-04-27T01:09:53.147Z,91.19
2017-04-27T01:11:05.386Z,91.48
2017-04-27T01:12:17.592Z,91.48
2017-04-27T01:13:30.160Z,91.38
2017-04-27T01:14:42.949Z,91.38
2017-04-27T01:15:55.454Z,91.48
2017-04-27T01:17:07.968Z,91.67
2017-04-27T01:18:20.471Z,91.38
2017-04-27T01:19:33.007Z,91.67
2017-04-27T01:20:45.539Z,91.38
2017-04-27T01:21:58.053Z,91.67
2017-04-27T01:23:10.569Z,91.67
2017-04-27T01:24:23.073Z,91.86
2017-04-27T01:25:35.593Z,91.86
2017-04-27T01:26:48.125Z,91.86
2017-04-27T01:28:00.682Z,91.57
2017-04-27T01:29:13.210Z,91.86
2017-04-27T01:30:25.752Z,92
2017-04-27T01:31:38.303Z,92.29
2017-04-27T01:32:50.845Z,92.1
2017-04-27T01:34:03.361Z,92.29
2017-04-27T01:35:15.316Z,91.91
2017-04-27T01:36:27.852Z,92.19
2017-04-27T01:37:40.385Z,91.81
2017-04-27T01:38:52.891Z,92.47
2017-04-27T01:40:05.401Z,92.38
2017-04-27T01:41:17.909Z,92.94
2017-04-27T01:42:30.429Z,93.04
2017-04-27T01:43:42.929Z,92.76
2017-04-27T01:44:55.476Z,93.04
2017-04-27T01:46:08.003Z,92.38
2017-04-27T01:47:20.795Z,92.94
2017-04-27T01:48:33.312Z,93.04
2017-04-27T01:49:45.860Z,92.66
2017-04-27T01:50:58.075Z,92.85
2017-04-27T01:52:09.981Z,93.51
2017-04-27T01:53:22.503Z,93.51
2017-04-27T01:54:35.038Z,93.51
2017-04-27T01:55:47.569Z,93.7
2017-04-27T01:57:00.092Z,93.04
2017-04-27T01:58:12.637Z,93.23
2017-04-27T01:59:24.872Z,93.7
2017-04-27T02:00:37.096Z,94.08
2017-04-27T02:01:49.638Z,93.7
2017-04-27T02:03:02.145Z,93.42
2017-04-27T02:04:14.666Z,93.89
2017-04-27T02:05:27.214Z,93.8
2017-04-27T02:06:39.422Z,94.08
2017-04-27T02:07:51.644Z,94.18
2017-04-27T02:09:04.414Z,93.8
2017-04-27T02:10:16.963Z,93.75
2017-04-27T02:11:29.188Z,93.75
2017-04-27T02:12:41.702Z,93.75
2017-04-27T02:13:54.226Z,93.85
2017-04-27T02:15:06.776Z,94.04
2017-04-27T02:16:19.315Z,93.94
2017-04-27T02:17:31.838Z,94.13
2017-04-27T02:18:44.393Z,94.13
2017-04-27T02:19:56.931Z,94.6
2017-04-27T02:21:09.481Z,94.6
2017-04-27T02:22:21.993Z,94.6
2017-04-27T02:23:34.211Z,94.7
2017-04-27T02:24:46.772Z,94.79
2017-04-27T02:25:59.306Z,94.7
2017-04-27T02:27:11.837Z,94.51
2017-04-27T02:28:24.356Z,94.51
2017-04-27T02:29:36.573Z,94.6
2017-04-27T02:30:49.407Z,94.51
2017-04-27T02:32:01.911Z,94.89
2017-04-27T02:33:13.821Z,94.79
2017-04-27T02:34:26.339Z,94.89
2017-04-27T02:35:38.832Z,95.45
2017-04-27T02:36:51.356Z,95.45
2017-04-27T02:38:03.866Z,94.89
2017-04-27T02:39:16.398Z,95.07
2017-04-27T02:40:28.935Z,96.12
2017-04-27T02:41:41.381Z,95.93
2017-04-27T02:42:53.951Z,96.12
2017-04-27T02:44:06.499Z,96.02
2017-04-27T02:45:19.053Z,95.74
2017-04-27T02:46:31.544Z,95.74
2017-04-27T02:47:44.065Z,95.64
2017-04-27T02:48:56.561Z,96.02
2017-04-27T02:50:09.100Z,95.83
2017-04-27T02:51:21.610Z,95.64
2017-04-27T02:52:34.141Z,95.93
2017-04-27T02:53:46.051Z,95.64
2017-04-27T02:54:58.595Z,95.64
2017-04-27T02:56:10.529Z,96.12
2017-04-27T02:57:23.063Z,95.83
2017-04-27T02:58:35.282Z,96.21
2017-04-27T02:59:47.846Z,96.12
2017-04-27T03:01:00.373Z,96.02
2017-04-27T03:02:12.594Z,96.02
2017-04-27T03:03:25.440Z,96.02
2017-04-27T03:04:37.975Z,96.69
2017-04-27T03:05:50.475Z,96.54
2017-04-27T03:07:02.720Z,96.5
2017-04-27T03:08:14.645Z,96.97
2017-04-27T03:09:27.138Z,96.59
2017-04-27T03:10:39.644Z,96.88
2017-04-27T03:11:51.858Z,96.97
2017-04-27T03:13:04.407Z,97.01
2017-04-27T03:14:16.921Z,96.64
2017-04-27T03:15:29.468Z,97.01
2017-04-27T03:16:41.996Z,97.11
2017-04-27T03:17:54.516Z,96.92
2017-04-27T03:19:07.059Z,97.01
2017-04-27T03:20:19.273Z,97.01
2017-04-27T03:21:31.772Z,97.49
2017-04-27T03:22:44.297Z,96.92
2017-04-27T03:23:56.524Z,97.11
2017-04-27T03:25:09.063Z,97.49
2017-04-27T03:26:21.560Z,97.3
2017-04-27T03:27:34.106Z,97.3
2017-04-27T03:28:46.633Z,97.11
2017-04-27T03:29:59.173Z,97.11
2017-04-27T03:31:11.649Z,97.39
2017-04-27T03:32:24.192Z,97.39
2017-04-27T03:33:36.731Z,97.58
2017-04-27T03:34:48.677Z,97.11
2017-04-27T03:36:01.227Z,97.3
2017-04-27T03:37:13.748Z,97.11
2017-04-27T03:38:26.298Z,97.2
2017-04-27T03:39:38.869Z,97.2
2017-04-27T03:40:51.402Z,97.49
2017-04-27T03:42:03.926Z,97.2
2017-04-27T03:43:16.177Z,97.39
2017-04-27T03:44:28.750Z,97.49
2017-04-27T03:45:41.262Z,97.3
2017-04-27T03:46:54.068Z,97.39
2017-04-27T03:48:06.611Z,97.2
2017-04-27T03:49:19.126Z,97.01
2017-04-27T03:50:31.674Z,97.01
2017-04-27T03:51:44.249Z,97.39
2017-04-27T03:52:57.038Z,97.58
2017-04-27T03:54:09.558Z,97.2
2017-04-27T03:55:22.111Z,97.77
2017-04-27T03:56:34.336Z,97.77
2017-04-27T03:57:46.603Z,97.58
2017-04-27T03:58:59.145Z,97.86
2017-04-27T04:00:11.670Z,97.58
2017-04-27T04:01:24.183Z,97.86
2017-04-27T04:02:36.707Z,98.14
2017-04-27T04:03:49.214Z,97.67
2017-04-27T04:05:01.725Z,98.05
2017-04-27T04:06:14.258Z,98.14
2017-04-27T04:07:26.501Z,97.86
2017-04-27T04:08:39.337Z,97.96
2017-04-27T04:09:51.890Z,97.86
2017-04-27T04:11:04.419Z,97.77
2017-04-27T04:12:16.948Z,97.67
2017-04-27T04:13:29.150Z,97.96
2017-04-27T04:14:41.925Z,98.14
2017-04-27T04:15:54.459Z,97.77
2017-04-27T04:17:06.983Z,98.24
2017-04-27T04:18:18.912Z,98.05
2017-04-27T04:19:31.160Z,98.14
2017-04-27T04:20:43.680Z,98.05
2017-04-27T04:21:56.202Z,98.14
2017-04-27T04:23:08.435Z,97.96
2017-04-27T04:24:20.334Z,98.05
2017-04-27T04:25:32.852Z,98.05
2017-04-27T04:26:45.362Z,98.05
2017-04-27T04:27:57.880Z,98.05
2017-04-27T04:29:10.148Z,98.24
2017-04-27T04:30:22.685Z,97.96
2017-04-27T04:31:35.219Z,98.24
2017-04-27T04:32:47.452Z,98.05
2017-04-27T04:34:00.001Z,97.86
2017-04-27T04:35:12.223Z,97.96
2017-04-27T04:36:24.740Z,98.33
2017-04-27T04:37:37.273Z,97.96
2017-04-27T04:38:49.815Z,97.96
2017-04-27T04:40:02.355Z,98.33
2017-04-27T04:41:14.856Z,98.52
2017-04-27T04:42:27.084Z,98.62
2017-04-27T04:43:39.616Z,98.81
2017-04-27T04:44:52.138Z,98.48
2017-04-27T04:46:04.661Z,98.2
2017-04-27T04:47:16.610Z,98.39
2017-04-27T04:48:29.107Z,98.39
2017-04-27T04:49:41.649Z,98.39
2017-04-27T04:50:53.848Z,98.2
2017-04-27T04:52:06.375Z,98.29
2017-04-27T04:53:18.612Z,98.2
2017-04-27T04:54:31.113Z,98.39
2017-04-27T04:55:43.632Z,98.2
2017-04-27T04:56:56.131Z,98.29
2017-04-27T04:58:08.671Z,98.01
2017-04-27T04:59:21.176Z,98.01
2017-04-27T05:00:33.384Z,98.1
2017-04-27T05:01:45.937Z,97.91
2017-04-27T05:02:58.807Z,97.82
2017-04-27T05:04:11.049Z,97.82
2017-04-27T05:05:23.576Z,97.91
2017-04-27T05:06:36.099Z,97.3
2017-04-27T05:07:48.643Z,97.39
2017-04-27T05:09:01.188Z,97.49
2017-04-27T05:10:13.408Z,97.39
2017-04-27T05:11:25.937Z,97.3
2017-04-27T05:12:38.144Z,97.68
2017-04-27T05:13:50.674Z,97.3
2017-04-27T05:15:03.212Z,97.11
2017-04-27T05:16:15.141Z,97.3
2017-04-27T05:17:27.650Z,97.49
2017-04-27T05:18:39.909Z,97.02
2017-04-27T05:19:52.454Z,96.83
2017-04-27T05:21:04.963Z,97.2
2017-04-27T05:22:17.159Z,96.73
2017-04-27T05:23:29.688Z,97.06
2017-04-27T05:24:42.227Z,96.4
2017-04-27T05:25:54.439Z,96.31
2017-04-27T05:27:06.979Z,96.69
2017-04-27T05:28:19.543Z,96.69
2017-04-27T05:29:32.096Z,96.69
2017-04-27T05:30:44.317Z,95.93
2017-04-27T05:31:56.841Z,96.02
2017-04-27T05:33:09.426Z,95.55
2017-04-27T05:34:21.655Z,95.74
2017-04-27T05:35:33.864Z,96.12
2017-04-27T05:36:46.410Z,95.83
2017-04-27T05:37:58.915Z,95.83
2017-04-27T05:39:11.444Z,95.83
2017-04-27T05:40:23.357Z,95.45
2017-04-27T05:41:35.602Z,95.07
2017-04-27T05:42:48.145Z,95.36
2017-04-27T05:44:00.690Z,95.45
2017-04-27T05:45:12.631Z,95.26
2017-04-27T05:46:25.110Z,95.12
2017-04-27T05:47:37.624Z,95.31
2017-04-27T05:48:50.130Z,95.31
2017-04-27T05:50:02.370Z,94.74
2017-04-27T05:51:14.594Z,94.74
2017-04-27T05:52:27.112Z,94.27
2017-04-27T05:53:39.336Z,94.18
2017-04-27T05:54:51.853Z,93.89
2017-04-27T05:56:04.399Z,93.99
2017-04-27T05:57:16.924Z,94.08
2017-04-27T05:58:29.174Z,93.8
2017-04-27T05:59:41.708Z,93.89
2017-04-27T06:00:54.204Z,93.8
2017-04-27T06:02:06.725Z,93.99
2017-04-27T06:03:19.235Z,93.99
2017-04-27T06:04:31.477Z,94.08
2017-04-27T06:05:44.015Z,94.08
2017-04-27T06:06:56.544Z,94.37
2017-04-27T06:08:08.787Z,93.8
2017-04-27T06:09:21.025Z,93.89
2017-04-27T06:10:33.257Z,93.61
2017-04-27T06:11:45.778Z,93.8
2017-04-27T06:12:58.312Z,93.89
2017-04-27T06:14:10.537Z,93.75
2017-04-27T06:15:23.093Z,93.61
2017-04-27T06:16:35.626Z,93.61
2017-04-27T06:17:48.146Z,93.99
2017-04-27T06:19:00.654Z,93.46
2017-04-27T06:20:12.891Z,93.37
2017-04-27T06:21:25.421Z,93.75
2017-04-27T06:22:37.655Z,93.27
2017-04-27T06:23:50.201Z,93.46
2017-04-27T06:25:02.715Z,92.99
2017-04-27T06:26:15.243Z,92.99
2017-04-27T06:27:27.763Z,92.52
2017-04-27T06:28:40.297Z,92.76
2017-04-27T06:29:53.060Z,92.28
2017-04-27T06:31:05.280Z,92.09
2017-04-27T06:32:17.830Z,92.09
2017-04-27T06:33:30.354Z,91.8
2017-04-27T06:34:42.889Z,91.42
2017-04-27T06:35:55.417Z,91.61
2017-04-27T06:37:07.941Z,91.52
2017-04-27T06:38:20.488Z,91.38
2017-04-27T06:39:33.015Z,91.66
2017-04-27T06:40:45.803Z,90.95
2017-04-27T06:41:58.348Z,89.9
2017-04-27T06:43:10.568Z,89.38
2017-04-27T06:44:22.789Z,88.05
2017-04-27T06:45:35.035Z,87.24
2017-04-27T06:46:47.559Z,86.38
2017-04-27T06:48:00.077Z,85.76
2017-04-27T06:49:12.316Z,85.42
2017-04-27T06:50:24.846Z,84.19
2017-04-27T06:51:37.415Z,82.8
2017-04-27T06:52:49.961Z,82.04
2017-04-27T06:54:01.927Z,81.51
2017-04-27T06:55:14.157Z,81.23
2017-04-27T06:56:26.699Z,81.07
2017-04-27T06:57:39.241Z,79.64
2017-04-27T06:58:51.809Z,78.25
2017-04-27T07:00:04.039Z,76.2
2017-04-27T07:01:16.610Z,75.53
2017-04-27T07:02:29.149Z,75.57
2017-04-27T07:03:41.667Z,73.28
2017-04-27T07:04:53.923Z,71.88
2017-04-27T07:06:06.489Z,71.12
2017-04-27T07:07:18.757Z,68.67
2017-04-27T07:08:31.313Z,67.81
2017-04-27T07:09:43.849Z,67.91
2017-04-27T07:10:56.078Z,67.24
2017-04-27T07:12:08.626Z,66.66
2017-04-27T07:13:20.887Z,66.66
2017-04-27T07:14:33.455Z,65.23
2017-04-27T07:15:45.979Z,64.94
2017-04-27T07:16:58.234Z,63.93
2017-04-27T07:18:10.492Z,63.16
2017-04-27T07:19:23.014Z,62.68
2017-04-27T07:20:35.263Z,61.28
2017-04-27T07:21:47.809Z,59.47
2017-04-27T07:23:00.059Z,59.84
2017-04-27T07:24:12.611Z,59.75
2017-04-27T07:25:25.172Z,59.56
2017-04-27T07:26:37.699Z,59.47
2017-04-27T07:27:49.920Z,59.37
2017-04-27T07:29:02.463Z,59.4
2017-04-27T07:30:14.989Z,59.49
2017-04-27T07:31:27.249Z,59.4
2017-04-27T07:32:39.777Z,59.97
2017-04-27T07:33:52.344Z,58.83
2017-04-27T07:35:04.913Z,57.8
2017-04-27T07:36:17.456Z,57.04
2017-04-27T07:37:30.039Z,56.94
2017-04-27T07:38:42.306Z,55.51
2017-04-27T07:39:54.855Z,55.41
2017-04-27T07:41:07.402Z,55.88
2017-04-27T07:42:19.348Z,55.53
2017-04-27T07:43:31.590Z,55.15
2017-04-27T07:44:44.131Z,54.96
2017-04-27T07:45:56.681Z,55.34
2017-04-27T07:47:09.220Z,54.38
2017-04-27T07:48:21.469Z,53.81
2017-04-27T07:49:34.038Z,54.32
2017-04-27T07:50:46.569Z,54.12
2017-04-27T07:51:59.128Z,53.26
2017-04-27T07:53:11.662Z,52.69
2017-04-27T07:54:24.195Z,53.16
2017-04-27T07:55:36.766Z,53
2017-04-27T07:56:49.290Z,51.46
2017-04-27T07:58:01.836Z,50.41
2017-04-27T07:59:14.077Z,50.24
2017-04-27T08:00:26.329Z,49.96
2017-04-27T08:01:38.857Z,49.48
2017-04-27T08:02:51.391Z,48.8
2017-04-27T08:04:03.949Z,48.78
2017-04-27T08:05:16.511Z,49.65
2017-04-27T08:06:29.062Z,48.69
2017-04-27T08:07:41.629Z,48.88
2017-04-27T08:08:54.208Z,49.91
2017-04-27T08:10:06.778Z,50
2017-04-27T08:11:18.749Z,50.38
2017-04-27T08:12:31.287Z,50.48
2017-04-27T08:13:43.861Z,51.25
2017-04-27T08:14:56.379Z,51.42
2017-04-27T08:16:08.606Z,52.56
2017-04-27T08:17:21.125Z,51.79
2017-04-27T08:18:33.320Z,52.06
2017-04-27T08:19:45.567Z,53.02
2017-04-27T08:20:58.105Z,52.83
2017-04-27T08:22:10.352Z,53.3
2017-04-27T08:23:22.884Z,53.94
2017-04-27T08:24:35.100Z,54.14
2017-04-27T08:25:47.325Z,55.29
2017-04-27T08:26:59.862Z,55.29
2017-04-27T08:28:12.391Z,55.86
2017-04-27T08:29:24.962Z,55.57
2017-04-27T08:30:37.207Z,55.54
2017-04-27T08:31:49.742Z,55.26
2017-04-27T08:33:02.267Z,54.59
2017-04-27T08:34:14.523Z,54.68
2017-04-27T08:35:26.765Z,55.16
2017-04-27T08:36:39.310Z,55.04
2017-04-27T08:37:51.855Z,56.09
2017-04-27T08:39:04.401Z,56.28
2017-04-27T08:40:16.639Z,56.28
2017-04-27T08:41:29.186Z,56.28
2017-04-27T08:42:41.410Z,56.82
2017-04-27T08:43:53.652Z,57.31
2017-04-27T08:45:05.855Z,57.5
2017-04-27T08:46:18.397Z,57.78
2017-04-27T08:47:30.944Z,58.16
2017-04-27T08:48:43.499Z,58.16
2017-04-27T08:49:56.035Z,58.16
2017-04-27T08:51:08.256Z,57.87
2017-04-27T08:52:20.527Z,57.02
2017-04-27T08:53:33.077Z,58.07
2017-04-27T08:54:45.641Z,58.83
2017-04-27T08:55:58.164Z,57.68
2017-04-27T08:57:10.410Z,57.4
2017-04-27T08:58:22.386Z,57.59
2017-04-27T08:59:34.353Z,57.21
2017-04-27T09:00:46.894Z,56.73
2017-04-27T09:01:59.444Z,57.46
2017-04-27T09:03:12.044Z,57.65
2017-04-27T09:04:24.285Z,57.85
2017-04-27T09:05:36.539Z,58.14
2017-04-27T09:06:49.082Z,57.94
2017-04-27T09:08:01.324Z,58.14
2017-04-27T09:09:13.242Z,57.11
2017-04-27T09:10:25.787Z,55.94
2017-04-27T09:11:38.316Z,56.13
2017-04-27T09:12:50.864Z,56.16
2017-04-27T09:14:02.803Z,56.7
2017-04-27T09:15:14.752Z,57.02
2017-04-27T09:16:26.696Z,56.99
2017-04-27T09:17:39.253Z,57.18
2017-04-27T09:18:51.786Z,56.99
2017-04-27T09:20:04.029Z,57.65
2017-04-27T09:21:15.653Z,57.85
2017-04-27T09:22:28.232Z,56.92
2017-04-27T09:23:39.870Z,56.8
2017-04-27T09:24:52.125Z,56.99
2017-04-27T09:26:04.659Z,57.28
2017-04-27T09:27:17.158Z,56.99
2017-04-27T09:28:29.401Z,56.8
2017-04-27T09:29:41.950Z,56.32
2017-04-27T09:30:54.500Z,55.65
2017-04-27T09:32:07.017Z,56.04
2017-04-27T09:33:19.561Z,55.84
2017-04-27T09:34:32.083Z,55.65
2017-04-27T09:35:44.608Z,55.27
2017-04-27T09:36:56.847Z,55.55
2017-04-27T09:38:09.397Z,55.94
2017-04-27T09:39:21.950Z,55.65
2017-04-27T09:40:34.473Z,55.65
2017-04-27T09:41:46.739Z,56.45
2017-04-27T09:42:59.302Z,57.21
2017-04-27T09:44:11.833Z,56.92
2017-04-27T09:45:23.769Z,55.96
2017-04-27T09:46:35.993Z,55.49
2017-04-27T09:47:48.535Z,55.96
2017-04-27T09:49:01.069Z,56.25
2017-04-27T09:50:13.637Z,56.25
2017-04-27T09:51:26.152Z,56.32
2017-04-27T09:52:38.694Z,56.92
2017-04-27T09:53:51.248Z,56.92
2017-04-27T09:55:03.772Z,56.45
2017-04-27T09:56:15.985Z,56.06
2017-04-27T09:57:28.536Z,55.87
2017-04-27T09:58:40.777Z,55.58
2017-04-27T09:59:53.323Z,55.68
2017-04-27T10:01:05.867Z,55.68
2017-04-27T10:02:17.790Z,55.2
2017-04-27T10:03:30.040Z,55.01
2017-04-27T10:04:42.561Z,55.11
2017-04-27T10:05:55.088Z,54.44
2017-04-27T10:07:07.319Z,54.47
2017-04-27T10:08:19.878Z,54.56
2017-04-27T10:09:32.469Z,53.89
2017-04-27T10:10:45.033Z,52.77
2017-04-27T10:11:57.290Z,52.01
2017-04-27T10:13:09.836Z,51.91
2017-04-27T10:14:21.848Z,50.57
2017-04-27T10:15:34.399Z,50.57
2017-04-27T10:16:46.940Z,50.86
2017-04-27T10:17:59.496Z,50.21
2017-04-27T10:19:11.728Z,50.02
2017-04-27T10:20:23.950Z,49
2017-04-27T10:21:36.445Z,48.71
2017-04-27T10:22:48.392Z,48.83
2017-04-27T10:24:00.923Z,47.58
2017-04-27T10:25:13.167Z,46.94
2017-04-27T10:26:25.716Z,46.36
2017-04-27T10:27:38.309Z,45.62
2017-04-27T10:28:50.854Z,45.45
2017-04-27T10:30:03.432Z,44.32
2017-04-27T10:31:15.374Z,43.65
2017-04-27T10:32:27.909Z,43.1
2017-04-27T10:33:40.188Z,43.38
2017-04-27T10:34:52.759Z,42.83
2017-04-27T10:36:05.323Z,42.44
2017-04-27T10:37:17.872Z,42.27
2017-04-27T10:38:30.428Z,42.18
2017-04-27T10:39:42.938Z,41.79
2017-04-27T10:40:55.510Z,41.24
2017-04-27T10:42:08.083Z,41.33
2017-04-27T10:43:20.347Z,40.88
2017-04-27T10:44:32.302Z,39.91
2017-04-27T10:45:44.878Z,39.33
2017-04-27T10:46:57.147Z,39.64
2017-04-27T10:48:09.685Z,38.59
2017-04-27T10:49:22.237Z,36.97
2017-04-27T10:50:34.823Z,36.68
2017-04-27T10:51:47.380Z,36.69
2017-04-27T10:52:59.921Z,36.6
2017-04-27T10:54:12.171Z,35.73
2017-04-27T10:55:24.743Z,35.56
2017-04-27T10:56:37.312Z,35.64
2017-04-27T10:57:49.877Z,36.11
2017-04-27T10:59:02.423Z,36.51
2017-04-27T11:00:14.972Z,36.23
2017-04-27T11:01:27.240Z,34.88
2017-04-27T11:02:39.814Z,33.55
2017-04-27T11:03:52.360Z,32.49
2017-04-27T11:05:04.927Z,32.21
2017-04-27T11:06:17.505Z,32.03
2017-04-27T11:07:30.048Z,31.27
2017-04-27T11:08:42.586Z,31.27
2017-04-27T11:09:55.145Z,31.46
2017-04-27T11:11:07.389Z,31.28
2017-04-27T11:12:19.929Z,31.38
2017-04-27T11:13:32.480Z,32.04
2017-04-27T11:14:45.044Z,32.52
2017-04-27T11:15:57.597Z,33.1
2017-04-27T11:17:10.158Z,33.2
2017-04-27T11:18:22.967Z,33.48
2017-04-27T11:19:35.511Z,33.29
2017-04-27T11:20:48.073Z,32.91
2017-04-27T11:22:00.627Z,32.12
2017-04-27T11:23:12.891Z,32.41
2017-04-27T11:24:34.637Z,32.7
2017-04-27T11:25:46.887Z,32.6
2017-04-27T11:26:59.427Z,32.51
2017-04-27T11:28:11.379Z,32.7
2017-04-27T11:29:23.951Z,32.6
2017-04-27T11:30:36.223Z,32.12
2017-04-27T11:31:48.770Z,32.79
2017-04-27T11:33:01.329Z,33.37
2017-04-27T11:34:13.582Z,33.28
2017-04-27T11:35:26.124Z,32.99
2017-04-27T11:36:52.074Z,32.33
2017-04-27T11:38:04.648Z,32.24
2017-04-27T11:39:16.307Z,32.06
2017-04-27T11:40:28.863Z,30.43
2017-04-27T11:41:41.410Z,30.44
2017-04-27T11:42:53.995Z,29.47
2017-04-27T11:44:06.541Z,29.96
2017-04-27T11:45:18.749Z,29.96
2017-04-27T11:46:31.290Z,30.44
2017-04-27T11:47:43.562Z,31.49
2017-04-27T11:48:56.111Z,29.96
2017-04-27T11:50:08.678Z,28.69
2017-04-27T11:51:20.941Z,29.85
2017-04-27T11:52:33.477Z,29.27
2017-04-27T11:53:46.034Z,29.36
2017-04-27T11:54:58.564Z,29.25
2017-04-27T11:56:10.804Z,29.64
2017-04-27T11:57:23.055Z,30.11
2017-04-27T11:58:35.621Z,30.69
2017-04-27T11:59:48.174Z,30.49
2017-04-27T12:01:00.717Z,30.29
2017-04-27T12:02:13.312Z,30.58
2017-04-27T12:03:25.879Z,31.25
2017-04-27T12:04:38.426Z,30.38
2017-04-27T12:05:51.007Z,29.71
2017-04-27T12:07:03.253Z,29.69
2017-04-27T12:08:15.233Z,30.26
2017-04-27T12:09:27.466Z,30.35
2017-04-27T12:10:40.029Z,30.45
2017-04-27T12:11:52.298Z,31.41
2017-04-27T12:13:04.830Z,31.6
2017-04-27T12:14:17.418Z,31.9
2017-04-27T12:15:29.968Z,31.24
2017-04-27T12:16:42.544Z,30.56
2017-04-27T12:17:55.136Z,30.37
2017-04-27T12:19:07.697Z,30.1
2017-04-27T12:20:19.956Z,29.9
2017-04-27T12:21:32.499Z,29.71
2017-04-27T12:22:44.764Z,29.61
2017-04-27T12:23:57.020Z,30.29
2017-04-27T12:25:08.982Z,31.06
2017-04-27T12:26:21.549Z,30.46
2017-04-27T12:27:33.798Z,31.15
2017-04-27T12:28:46.369Z,31.35
2017-04-27T12:29:58.914Z,31.62
2017-04-27T12:31:11.165Z,31.72
2017-04-27T12:32:23.739Z,31.52
2017-04-27T12:33:36.332Z,31.35
2017-04-27T12:34:48.870Z,31.06
2017-04-27T12:36:01.419Z,29.91
2017-04-27T12:37:13.986Z,30.59
2017-04-27T12:38:26.764Z,30.49
2017-04-27T12:39:39.036Z,29.53
2017-04-27T12:40:51.582Z,30.3
2017-04-27T12:42:04.131Z,30.11
2017-04-27T12:43:16.670Z,30.21
2017-04-27T12:44:28.923Z,29.93
2017-04-27T12:45:41.468Z,29.35
2017-04-27T12:46:54.008Z,29.45
2017-04-27T12:48:06.282Z,30.03
2017-04-27T12:49:18.855Z,30.22
2017-04-27T12:50:31.428Z,30.03
2017-04-27T12:51:43.674Z,29.85
2017-04-27T12:52:56.266Z,30.04
2017-04-27T12:54:08.829Z,30.04
2017-04-27T12:55:21.083Z,30.51
2017-04-27T12:56:33.634Z,30.41
2017-04-27T12:57:45.605Z,29.72
2017-04-27T12:58:58.122Z,29.53
2017-04-27T13:00:10.684Z,29.72
2017-04-27T13:01:23.240Z,29.61
2017-04-27T13:02:35.784Z,29.42
2017-04-27T13:03:48.329Z,30.19
2017-04-27T13:05:00.594Z,30.77
2017-04-27T13:06:12.864Z,30.85
2017-04-27T13:07:25.146Z,30.76
2017-04-27T13:08:37.708Z,31.24
2017-04-27T13:09:50.259Z,31.72
2017-04-27T13:11:02.480Z,31.33
2017-04-27T13:12:14.431Z,31.93
2017-04-27T13:13:27.001Z,30.66
2017-04-27T13:14:39.568Z,30.77
2017-04-27T13:15:52.117Z,31.06
2017-04-27T13:17:04.660Z,30.46
2017-04-27T13:18:16.909Z,30.46
2017-04-27T13:19:29.451Z,30.66
2017-04-27T13:20:42.017Z,31.12
2017-04-27T13:21:54.813Z,31.99
2017-04-27T13:23:07.383Z,32.26
2017-04-27T13:24:19.916Z,31.98
2017-04-27T13:25:32.480Z,31.48
2017-04-27T13:26:45.020Z,31.85
2017-04-27T13:27:57.590Z,32.52
2017-04-27T13:29:09.822Z,32.81
2017-04-27T13:30:22.416Z,32.89
2017-04-27T13:31:34.981Z,33.56
2017-04-27T13:32:47.524Z,33.28
2017-04-27T13:34:00.081Z,33.45
2017-04-27T13:35:12.643Z,33.93
2017-04-27T13:36:24.892Z,34.51
2017-04-27T13:37:37.444Z,35.36
2017-04-27T13:38:50.027Z,35.38
2017-04-27T13:40:02.281Z,35.55
2017-04-27T13:41:14.827Z,35.83
2017-04-27T13:42:27.070Z,35.45
2017-04-27T13:43:39.316Z,35.16
2017-04-27T13:44:51.866Z,35.45
2017-04-27T13:46:04.086Z,35.14
2017-04-27T13:47:16.359Z,35.63
2017-04-27T13:48:28.904Z,35.72
2017-04-27T13:49:41.442Z,36.58
2017-04-27T13:50:53.987Z,36.88
2017-04-27T13:52:06.220Z,36.57
2017-04-27T13:53:18.766Z,35.71
2017-04-27T13:54:31.329Z,34.75
2017-04-27T13:55:43.896Z,35.21
2017-04-27T13:56:56.444Z,36.65
2017-04-27T13:58:08.688Z,37.8
2017-04-27T13:59:21.259Z,38.76
2017-04-27T14:00:33.511Z,38.35
2017-04-27T14:01:45.459Z,38.74
2017-04-27T14:02:57.683Z,38.83
2017-04-27T14:04:09.933Z,38.83
2017-04-27T14:05:22.475Z,38.45
2017-04-27T14:06:35.016Z,38.24
2017-04-27T14:07:47.277Z,37.85
2017-04-27T14:08:59.838Z,37.85
2017-04-27T14:10:12.071Z,38.43
2017-04-27T14:11:24.000Z,39.58
2017-04-27T14:12:36.525Z,39.48
2017-04-27T14:13:48.467Z,38.81
2017-04-27T14:15:01.016Z,38.91
2017-04-27T14:16:13.234Z,37.55
2017-04-27T14:17:25.780Z,39.56
2017-04-27T14:18:38.019Z,39.75
2017-04-27T14:19:50.567Z,40.23
2017-04-27T14:21:02.863Z,40.81
2017-04-27T14:22:14.815Z,40.81
2017-04-27T14:23:27.360Z,40.23
2017-04-27T14:24:39.883Z,39.85
2017-04-27T14:25:51.801Z,39.56
2017-04-27T14:27:04.047Z,39.83
2017-04-27T14:28:16.297Z,39.73
2017-04-27T14:29:28.867Z,40.31
2017-04-27T14:30:41.106Z,40.21
2017-04-27T14:31:53.357Z,39.35
2017-04-27T14:33:05.619Z,39.35
2017-04-27T14:34:18.151Z,39.25
2017-04-27T14:35:30.722Z,39.73
2017-04-27T14:36:43.283Z,39.73
2017-04-27T14:37:55.739Z,39.16
2017-04-27T14:39:07.985Z,38.59
2017-04-27T14:40:20.257Z,37.72
2017-04-27T14:41:32.792Z,38.39
2017-04-27T14:42:45.344Z,38.96
2017-04-27T14:43:57.890Z,39.06
2017-04-27T14:45:09.827Z,39.16
2017-04-27T14:46:22.361Z,39.35
2017-04-27T14:47:34.870Z,39.16
2017-04-27T14:48:47.128Z,39.16
2017-04-27T14:49:59.669Z,39.35
2017-04-27T14:51:11.910Z,39.83
2017-04-27T14:52:24.140Z,40.5
2017-04-27T14:53:36.686Z,40.41
2017-04-27T14:54:49.229Z,40.41
2017-04-27T14:56:01.521Z,40.12
2017-04-27T14:57:13.775Z,39.81
2017-04-27T14:58:26.317Z,39.81
2017-04-27T14:59:38.854Z,39.81
2017-04-27T15:00:51.380Z,39.72
2017-04-27T15:02:03.900Z,39.9
2017-04-27T15:03:16.144Z,40
2017-04-27T15:04:28.672Z,39.98
2017-04-27T15:05:41.213Z,40.17
2017-04-27T15:06:53.465Z,40.55
2017-04-27T15:08:05.766Z,40.94
2017-04-27T15:09:17.714Z,41.13
2017-04-27T15:10:30.232Z,41.41
2017-04-27T15:11:42.471Z,42.18
2017-04-27T15:12:55.018Z,41.8
2017-04-27T15:14:07.562Z,41.7
2017-04-27T15:15:19.210Z,41.7
2017-04-27T15:16:31.758Z,42.27
2017-04-27T15:17:43.985Z,41.99
2017-04-27T15:18:56.517Z,41.61
2017-04-27T15:20:08.760Z,41.8
2017-04-27T15:21:21.267Z,41.58
2017-04-27T15:22:33.802Z,42.16
2017-04-27T15:23:46.323Z,42.64
2017-04-27T15:24:58.922Z,43.4
2017-04-27T15:26:11.465Z,43.4
2017-04-27T15:27:23.685Z,43.98
2017-04-27T15:28:36.219Z,43.98
2017-04-27T15:29:48.459Z,43.3
2017-04-27T15:31:01.010Z,43.79
2017-04-27T15:32:13.259Z,43.02
2017-04-27T15:33:25.772Z,42.73
2017-04-27T15:34:37.986Z,42.73
2017-04-27T15:35:50.494Z,43.38
2017-04-27T15:37:02.438Z,44.17
2017-04-27T15:38:14.702Z,43.69